sensor_id;sensor_type;location;lat;lon;timestamp;P1;durP1;ratioP1;P2;durP2;ratioP2
21034;SDS011;10676;50.848;3.272;2024-03-23T00:55:58;128.98;;;117.50;;
21034;SDS011;10676;50.848;3.272;2024-03-23T00:58:24;129.40;;;117.63;;
21034;SDS011;10676;50.848;3.272;2024-03-23T01:00:50;121.97;;;111.55;;
21034;SDS011;10676;50.848;3.272;2024-03-23T01:03:15;131.25;;;119.68;;
21034;SDS011;10676;50.848;3.272;2024-03-23T01:05:41;129.00;;;117.28;;
21034;SDS011;10676;50.848;3.272;2024-03-23T01:08:07;126.18;;;114.88;;
21034;SDS011;10676;50.848;3.272;2024-03-23T01:10:32;124.43;;;113.50;;
21034;SDS011;10676;50.848;3.272;2024-03-23T01:12:58;123.70;;;111.85;;
21034;SDS011;10676;50.848;3.272;2024-03-23T01:15:24;122.43;;;111.15;;
21034;SDS011;10676;50.848;3.272;2024-03-23T01:17:49;123.03;;;111.95;;
21034;SDS011;10676;50.848;3.272;2024-03-23T01:20:15;125.13;;;113.57;;
21034;SDS011;10676;50.848;3.272;2024-03-23T01:22:41;125.85;;;115.22;;
21034;SDS011;10676;50.848;3.272;2024-03-23T01:25:07;126.68;;;116.30;;
21034;SDS011;10676;50.848;3.272;2024-03-23T01:27:33;127.60;;;116.32;;
21034;SDS011;10676;50.848;3.272;2024-03-23T01:29:59;127.95;;;117.03;;
21034;SDS011;10676;50.848;3.272;2024-03-23T01:32:25;124.80;;;113.72;;
21034;SDS011;10676;50.848;3.272;2024-03-23T01:34:50;125.57;;;114.18;;
21034;SDS011;10676;50.848;3.272;2024-03-23T01:37:16;123.82;;;113.03;;
21034;SDS011;10676;50.848;3.272;2024-03-23T01:39:41;119.15;;;109.10;;
21034;SDS011;10676;50.848;3.272;2024-03-23T01:42:07;119.40;;;109.68;;
21034;SDS011;10676;50.848;3.272;2024-03-23T01:44:33;119.80;;;109.72;;
21034;SDS011;10676;50.848;3.272;2024-03-23T01:46:58;116.80;;;107.50;;
21034;SDS011;10676;50.848;3.272;2024-03-23T01:49:24;115.20;;;105.28;;
21034;SDS011;10676;50.848;3.272;2024-03-23T01:51:50;111.22;;;101.88;;
21034;SDS011;10676;50.848;3.272;2024-03-23T01:54:16;113.68;;;103.68;;
21034;SDS011;10676;50.848;3.272;2024-03-23T01:56:41;113.00;;;103.68;;
21034;SDS011;10676;50.848;3.272;2024-03-23T01:59:07;104.28;;;95.60;;
21034;SDS011;10676;50.848;3.272;2024-03-23T02:01:34;98.93;;;90.75;;
21034;SDS011;10676;50.848;3.272;2024-03-23T02:04:03;98.88;;;90.50;;
21034;SDS011;10676;50.848;3.272;2024-03-23T02:06:30;95.88;;;87.78;;
21034;SDS011;10676;50.848;3.272;2024-03-23T02:08:56;89.65;;;81.97;;
21034;SDS011;10676;50.848;3.272;2024-03-23T02:11:22;84.50;;;76.72;;
21034;SDS011;10676;50.848;3.272;2024-03-23T02:13:48;75.85;;;69.28;;
21034;SDS011;10676;50.848;3.272;2024-03-23T02:16:13;61.72;;;56.10;;
21034;SDS011;10676;50.848;3.272;2024-03-23T02:18:39;58.45;;;52.63;;
21034;SDS011;10676;50.848;3.272;2024-03-23T02:21:05;53.70;;;48.08;;
21034;SDS011;10676;50.848;3.272;2024-03-23T02:23:30;45.78;;;41.08;;
21034;SDS011;10676;50.848;3.272;2024-03-23T02:25:56;47.38;;;35.90;;
21034;SDS011;10676;50.848;3.272;2024-03-23T02:28:22;37.33;;;32.13;;
21034;SDS011;10676;50.848;3.272;2024-03-23T02:30:51;33.75;;;30.38;;
21034;SDS011;10676;50.848;3.272;2024-03-23T02:33:17;35.40;;;27.38;;
21034;SDS011;10676;50.848;3.272;2024-03-23T02:35:46;32.72;;;26.80;;
21034;SDS011;10676;50.848;3.272;2024-03-23T02:38:12;39.22;;;26.88;;
21034;SDS011;10676;50.848;3.272;2024-03-23T02:40:38;29.75;;;25.65;;
21034;SDS011;10676;50.848;3.272;2024-03-23T02:43:03;29.58;;;24.38;;
21034;SDS011;10676;50.848;3.272;2024-03-23T02:45:29;30.58;;;25.08;;
21034;SDS011;10676;50.848;3.272;2024-03-23T02:47:55;29.42;;;25.52;;
21034;SDS011;10676;50.848;3.272;2024-03-23T02:50:21;31.60;;;25.42;;
21034;SDS011;10676;50.848;3.272;2024-03-23T02:52:47;30.30;;;25.35;;
21034;SDS011;10676;50.848;3.272;2024-03-23T02:55:13;32.65;;;24.40;;
21034;SDS011;10676;50.848;3.272;2024-03-23T02:57:39;29.80;;;23.50;;
21034;SDS011;10676;50.848;3.272;2024-03-23T03:00:06;28.50;;;24.50;;
21034;SDS011;10676;50.848;3.272;2024-03-23T03:02:33;30.48;;;23.80;;
21034;SDS011;10676;50.848;3.272;2024-03-23T03:04:58;34.33;;;23.52;;
21034;SDS011;10676;50.848;3.272;2024-03-23T03:07:24;27.65;;;22.33;;
21034;SDS011;10676;50.848;3.272;2024-03-23T03:09:50;26.52;;;22.92;;
21034;SDS011;10676;50.848;3.272;2024-03-23T03:12:16;27.55;;;22.75;;
21034;SDS011;10676;50.848;3.272;2024-03-23T03:14:41;38.40;;;24.17;;
21034;SDS011;10676;50.848;3.272;2024-03-23T03:17:07;26.60;;;22.52;;
21034;SDS011;10676;50.848;3.272;2024-03-23T03:19:33;25.70;;;22.67;;
21034;SDS011;10676;50.848;3.272;2024-03-23T03:21:58;29.00;;;22.73;;
21034;SDS011;10676;50.848;3.272;2024-03-23T03:24:25;32.40;;;22.98;;
21034;SDS011;10676;50.848;3.272;2024-03-23T03:26:51;30.33;;;21.98;;
21034;SDS011;10676;50.848;3.272;2024-03-23T03:29:16;24.85;;;22.23;;
21034;SDS011;10676;50.848;3.272;2024-03-23T03:31:42;25.17;;;21.98;;
21034;SDS011;10676;50.848;3.272;2024-03-23T03:34:08;26.55;;;22.20;;
21034;SDS011;10676;50.848;3.272;2024-03-23T03:36:34;24.90;;;22.35;;
21034;SDS011;10676;50.848;3.272;2024-03-23T03:39:00;25.17;;;22.23;;
21034;SDS011;10676;50.848;3.272;2024-03-23T03:41:27;26.65;;;22.02;;
21034;SDS011;10676;50.848;3.272;2024-03-23T03:43:53;24.05;;;21.70;;
21034;SDS011;10676;50.848;3.272;2024-03-23T03:46:20;30.00;;;23.02;;
21034;SDS011;10676;50.848;3.272;2024-03-23T03:48:46;29.92;;;22.08;;
21034;SDS011;10676;50.848;3.272;2024-03-23T03:51:13;26.80;;;21.38;;
21034;SDS011;10676;50.848;3.272;2024-03-23T03:53:39;26.88;;;22.77;;
21034;SDS011;10676;50.848;3.272;2024-03-23T03:56:04;30.05;;;22.85;;
21034;SDS011;10676;50.848;3.272;2024-03-23T03:58:30;24.40;;;21.88;;
21034;SDS011;10676;50.848;3.272;2024-03-23T04:00:56;27.92;;;22.23;;
21034;SDS011;10676;50.848;3.272;2024-03-23T04:03:21;28.25;;;22.17;;
21034;SDS011;10676;50.848;3.272;2024-03-23T04:05:53;28.27;;;22.92;;
21034;SDS011;10676;50.848;3.272;2024-03-23T04:08:20;25.60;;;23.02;;
21034;SDS011;10676;50.848;3.272;2024-03-23T04:10:46;30.90;;;23.42;;
21034;SDS011;10676;50.848;3.272;2024-03-23T04:13:12;30.13;;;23.65;;
21034;SDS011;10676;50.848;3.272;2024-03-23T04:15:38;30.63;;;23.98;;
21034;SDS011;10676;50.848;3.272;2024-03-23T04:18:04;29.15;;;23.70;;
21034;SDS011;10676;50.848;3.272;2024-03-23T04:20:30;27.58;;;23.75;;
21034;SDS011;10676;50.848;3.272;2024-03-23T04:22:57;28.35;;;23.50;;
21034;SDS011;10676;50.848;3.272;2024-03-23T04:25:23;26.75;;;23.95;;
21034;SDS011;10676;50.848;3.272;2024-03-23T04:27:49;28.45;;;24.17;;
21034;SDS011;10676;50.848;3.272;2024-03-23T04:30:14;27.25;;;24.50;;
21034;SDS011;10676;50.848;3.272;2024-03-23T04:32:41;29.52;;;24.42;;
21034;SDS011;10676;50.848;3.272;2024-03-23T04:35:07;34.40;;;23.52;;
21034;SDS011;10676;50.848;3.272;2024-03-23T04:37:36;25.75;;;23.13;;
21034;SDS011;10676;50.848;3.272;2024-03-23T04:40:03;26.55;;;23.15;;
21034;SDS011;10676;50.848;3.272;2024-03-23T04:42:29;25.83;;;23.13;;
21034;SDS011;10676;50.848;3.272;2024-03-23T04:44:56;25.67;;;22.92;;
21034;SDS011;10676;50.848;3.272;2024-03-23T04:47:22;26.77;;;23.20;;
21034;SDS011;10676;50.848;3.272;2024-03-23T04:49:47;29.75;;;22.67;;
21034;SDS011;10676;50.848;3.272;2024-03-23T04:52:13;35.05;;;23.35;;
21034;SDS011;10676;50.848;3.272;2024-03-23T04:54:40;29.77;;;22.70;;
21034;SDS011;10676;50.848;3.272;2024-03-23T04:57:06;24.55;;;22.05;;
21034;SDS011;10676;50.848;3.272;2024-03-23T04:59:32;29.10;;;22.55;;
21034;SDS011;10676;50.848;3.272;2024-03-23T05:01:58;27.90;;;21.35;;
21034;SDS011;10676;50.848;3.272;2024-03-23T05:04:24;29.17;;;21.42;;
21034;SDS011;10676;50.848;3.272;2024-03-23T05:06:50;23.98;;;21.00;;
21034;SDS011;10676;50.848;3.272;2024-03-23T05:09:16;23.65;;;21.35;;
21034;SDS011;10676;50.848;3.272;2024-03-23T05:11:41;22.10;;;19.77;;
21034;SDS011;10676;50.848;3.272;2024-03-23T05:14:07;27.15;;;19.23;;
21034;SDS011;10676;50.848;3.272;2024-03-23T05:16:33;23.98;;;18.80;;
21034;SDS011;10676;50.848;3.272;2024-03-23T05:18:59;21.42;;;17.80;;
21034;SDS011;10676;50.848;3.272;2024-03-23T05:21:25;22.45;;;17.88;;
21034;SDS011;10676;50.848;3.272;2024-03-23T05:23:53;29.13;;;17.40;;
21034;SDS011;10676;50.848;3.272;2024-03-23T05:26:19;23.33;;;18.50;;
21034;SDS011;10676;50.848;3.272;2024-03-23T05:28:45;20.48;;;18.38;;
21034;SDS011;10676;50.848;3.272;2024-03-23T05:31:11;25.67;;;18.03;;
21034;SDS011;10676;50.848;3.272;2024-03-23T05:33:37;20.02;;;17.33;;
21034;SDS011;10676;50.848;3.272;2024-03-23T05:36:03;23.27;;;18.40;;
21034;SDS011;10676;50.848;3.272;2024-03-23T05:38:29;21.67;;;17.95;;
21034;SDS011;10676;50.848;3.272;2024-03-23T05:43:24;30.02;;;17.67;;
21034;SDS011;10676;50.848;3.272;2024-03-23T05:45:54;21.67;;;16.98;;
21034;SDS011;10676;50.848;3.272;2024-03-23T05:48:20;19.75;;;16.58;;
21034;SDS011;10676;50.848;3.272;2024-03-23T05:50:46;18.00;;;16.15;;
21034;SDS011;10676;50.848;3.272;2024-03-23T05:53:13;22.00;;;16.05;;
21034;SDS011;10676;50.848;3.272;2024-03-23T05:55:40;18.40;;;15.55;;
21034;SDS011;10676;50.848;3.272;2024-03-23T05:58:06;21.43;;;16.33;;
21034;SDS011;10676;50.848;3.272;2024-03-23T06:00:32;21.63;;;16.10;;
21034;SDS011;10676;50.848;3.272;2024-03-23T06:02:57;22.13;;;15.97;;
21034;SDS011;10676;50.848;3.272;2024-03-23T06:05:23;22.70;;;15.83;;
21034;SDS011;10676;50.848;3.272;2024-03-23T06:07:49;23.47;;;16.57;;
21034;SDS011;10676;50.848;3.272;2024-03-23T06:10:15;18.27;;;16.23;;
21034;SDS011;10676;50.848;3.272;2024-03-23T06:12:41;18.67;;;16.10;;
21034;SDS011;10676;50.848;3.272;2024-03-23T06:15:06;25.73;;;16.50;;
21034;SDS011;10676;50.848;3.272;2024-03-23T06:17:35;19.13;;;15.00;;
21034;SDS011;10676;50.848;3.272;2024-03-23T06:20:02;17.67;;;14.45;;
21034;SDS011;10676;50.848;3.272;2024-03-23T06:22:28;15.98;;;14.48;;
21034;SDS011;10676;50.848;3.272;2024-03-23T06:24:53;15.98;;;14.32;;
21034;SDS011;10676;50.848;3.272;2024-03-23T06:27:19;14.70;;;13.18;;
21034;SDS011;10676;50.848;3.272;2024-03-23T06:29:45;24.90;;;13.48;;
21034;SDS011;10676;50.848;3.272;2024-03-23T06:32:10;16.15;;;12.73;;
21034;SDS011;10676;50.848;3.272;2024-03-23T06:34:36;19.60;;;12.90;;
21034;SDS011;10676;50.848;3.272;2024-03-23T06:37:02;14.70;;;12.23;;
21034;SDS011;10676;50.848;3.272;2024-03-23T06:39:28;14.70;;;11.40;;
21034;SDS011;10676;50.848;3.272;2024-03-23T06:41:54;17.83;;;12.05;;
21034;SDS011;10676;50.848;3.272;2024-03-23T06:44:21;17.30;;;11.70;;
21034;SDS011;10676;50.848;3.272;2024-03-23T06:46:47;14.65;;;13.20;;
21034;SDS011;10676;50.848;3.272;2024-03-23T06:49:14;17.52;;;13.23;;
21034;SDS011;10676;50.848;3.272;2024-03-23T06:51:40;13.50;;;12.02;;
21034;SDS011;10676;50.848;3.272;2024-03-23T06:54:06;16.10;;;12.63;;
21034;SDS011;10676;50.848;3.272;2024-03-23T06:56:31;15.20;;;12.65;;
21034;SDS011;10676;50.848;3.272;2024-03-23T06:58:57;14.25;;;12.00;;
21034;SDS011;10676;50.848;3.272;2024-03-23T07:01:23;13.52;;;12.05;;
21034;SDS011;10676;50.848;3.272;2024-03-23T07:03:49;13.05;;;11.48;;
21034;SDS011;10676;50.848;3.272;2024-03-23T07:06:14;15.93;;;12.05;;
21034;SDS011;10676;50.848;3.272;2024-03-23T07:08:41;16.20;;;12.93;;
21034;SDS011;10676;50.848;3.272;2024-03-23T07:11:07;17.50;;;12.10;;
21034;SDS011;10676;50.848;3.272;2024-03-23T07:13:32;18.63;;;12.35;;
21034;SDS011;10676;50.848;3.272;2024-03-23T07:15:58;12.52;;;11.32;;
21034;SDS011;10676;50.848;3.272;2024-03-23T07:18:25;12.18;;;11.15;;
21034;SDS011;10676;50.848;3.272;2024-03-23T07:23:21;14.23;;;12.05;;
21034;SDS011;10676;50.848;3.272;2024-03-23T07:25:57;12.43;;;11.18;;
21034;SDS011;10676;50.848;3.272;2024-03-23T07:28:27;12.68;;;11.48;;
21034;SDS011;10676;50.848;3.272;2024-03-23T07:31:06;12.68;;;10.55;;
21034;SDS011;10676;50.848;3.272;2024-03-23T07:33:43;11.15;;;10.13;;
21034;SDS011;10676;50.848;3.272;2024-03-23T07:36:10;14.57;;;10.48;;
21034;SDS011;10676;50.848;3.272;2024-03-23T07:38:35;10.82;;;9.82;;
21034;SDS011;10676;50.848;3.272;2024-03-23T07:41:08;12.30;;;10.00;;
21034;SDS011;10676;50.848;3.272;2024-03-23T07:43:35;16.80;;;10.10;;
21034;SDS011;10676;50.848;3.272;2024-03-23T07:46:02;14.40;;;9.70;;
21034;SDS011;10676;50.848;3.272;2024-03-23T07:48:31;15.32;;;10.38;;
21034;SDS011;10676;50.848;3.272;2024-03-23T07:53:27;12.70;;;9.55;;
21034;SDS011;10676;50.848;3.272;2024-03-23T07:56:00;14.73;;;9.88;;
21034;SDS011;10676;50.848;3.272;2024-03-23T07:58:31;11.65;;;9.48;;
21034;SDS011;10676;50.848;3.272;2024-03-23T08:01:03;11.85;;;9.13;;
21034;SDS011;10676;50.848;3.272;2024-03-23T08:03:36;10.23;;;9.07;;
21034;SDS011;10676;50.848;3.272;2024-03-23T08:06:16;9.88;;;8.90;;
21034;SDS011;10676;50.848;3.272;2024-03-23T08:08:45;14.23;;;9.27;;
21034;SDS011;10676;50.848;3.272;2024-03-23T08:11:11;13.68;;;8.88;;
21034;SDS011;10676;50.848;3.272;2024-03-23T08:13:41;12.88;;;9.70;;
21034;SDS011;10676;50.848;3.272;2024-03-23T08:16:09;11.32;;;8.77;;
21034;SDS011;10676;50.848;3.272;2024-03-23T08:18:35;9.95;;;8.40;;
21034;SDS011;10676;50.848;3.272;2024-03-23T08:21:01;12.88;;;8.70;;
21034;SDS011;10676;50.848;3.272;2024-03-23T08:23:31;13.40;;;9.40;;
21034;SDS011;10676;50.848;3.272;2024-03-23T08:26:06;14.38;;;8.20;;
21034;SDS011;10676;50.848;3.272;2024-03-23T08:28:34;10.40;;;9.35;;
21034;SDS011;10676;50.848;3.272;2024-03-23T08:31:01;15.35;;;10.45;;
21034;SDS011;10676;50.848;3.272;2024-03-23T08:33:31;10.88;;;8.50;;
21034;SDS011;10676;50.848;3.272;2024-03-23T08:35:58;14.50;;;8.85;;
21034;SDS011;10676;50.848;3.272;2024-03-23T08:38:24;15.93;;;9.90;;
21034;SDS011;10676;50.848;3.272;2024-03-23T08:41:04;11.48;;;9.88;;
21034;SDS011;10676;50.848;3.272;2024-03-23T08:43:35;12.70;;;9.45;;
21034;SDS011;10676;50.848;3.272;2024-03-23T08:46:05;15.35;;;8.68;;
21034;SDS011;10676;50.848;3.272;2024-03-23T08:48:35;10.35;;;7.80;;
21034;SDS011;10676;50.848;3.272;2024-03-23T08:51:19;11.90;;;8.68;;
21034;SDS011;10676;50.848;3.272;2024-03-23T08:53:45;12.10;;;8.70;;
21034;SDS011;10676;50.848;3.272;2024-03-23T08:56:11;8.77;;;7.70;;
21034;SDS011;10676;50.848;3.272;2024-03-23T08:58:37;10.65;;;8.80;;
21034;SDS011;10676;50.848;3.272;2024-03-23T09:01:09;8.93;;;7.90;;
21034;SDS011;10676;50.848;3.272;2024-03-23T09:03:38;11.40;;;8.43;;
21034;SDS011;10676;50.848;3.272;2024-03-23T09:06:07;14.70;;;8.48;;
21034;SDS011;10676;50.848;3.272;2024-03-23T09:08:33;10.77;;;7.70;;
21034;SDS011;10676;50.848;3.272;2024-03-23T09:11:03;10.32;;;7.82;;
21034;SDS011;10676;50.848;3.272;2024-03-23T09:13:31;11.55;;;9.02;;
21034;SDS011;10676;50.848;3.272;2024-03-23T09:15:58;7.75;;;7.15;;
21034;SDS011;10676;50.848;3.272;2024-03-23T09:18:23;9.77;;;7.68;;
21034;SDS011;10676;50.848;3.272;2024-03-23T09:20:49;9.57;;;8.68;;
21034;SDS011;10676;50.848;3.272;2024-03-23T09:23:15;9.48;;;7.72;;
21034;SDS011;10676;50.848;3.272;2024-03-23T09:25:41;12.18;;;8.60;;
21034;SDS011;10676;50.848;3.272;2024-03-23T09:28:07;9.73;;;7.70;;
21034;SDS011;10676;50.848;3.272;2024-03-23T09:30:36;10.55;;;7.82;;
21034;SDS011;10676;50.848;3.272;2024-03-23T09:33:07;9.98;;;8.48;;
21034;SDS011;10676;50.848;3.272;2024-03-23T09:35:37;7.60;;;6.90;;
21034;SDS011;10676;50.848;3.272;2024-03-23T09:38:03;7.45;;;6.85;;
21034;SDS011;10676;50.848;3.272;2024-03-23T09:40:29;9.60;;;7.10;;
21034;SDS011;10676;50.848;3.272;2024-03-23T09:42:54;9.95;;;7.07;;
21034;SDS011;10676;50.848;3.272;2024-03-23T09:45:26;8.18;;;7.38;;
21034;SDS011;10676;50.848;3.272;2024-03-23T09:47:54;8.27;;;6.13;;
21034;SDS011;10676;50.848;3.272;2024-03-23T09:50:20;7.75;;;7.15;;
21034;SDS011;10676;50.848;3.272;2024-03-23T09:52:47;7.35;;;6.85;;
21034;SDS011;10676;50.848;3.272;2024-03-23T09:55:13;7.63;;;6.85;;
21034;SDS011;10676;50.848;3.272;2024-03-23T09:57:39;10.85;;;7.30;;
21034;SDS011;10676;50.848;3.272;2024-03-23T10:00:06;10.10;;;7.40;;
21034;SDS011;10676;50.848;3.272;2024-03-23T10:02:33;8.10;;;7.28;;
21034;SDS011;10676;50.848;3.272;2024-03-23T10:05:00;8.15;;;7.45;;
21034;SDS011;10676;50.848;3.272;2024-03-23T10:07:27;9.65;;;6.97;;
21034;SDS011;10676;50.848;3.272;2024-03-23T10:09:54;9.10;;;6.85;;
21034;SDS011;10676;50.848;3.272;2024-03-23T10:12:19;8.90;;;6.63;;
21034;SDS011;10676;50.848;3.272;2024-03-23T10:14:46;8.95;;;6.75;;
21034;SDS011;10676;50.848;3.272;2024-03-23T10:19:44;6.82;;;6.35;;
21034;SDS011;10676;50.848;3.272;2024-03-23T10:22:17;8.75;;;6.32;;
21034;SDS011;10676;50.848;3.272;2024-03-23T10:24:46;9.18;;;6.47;;
21034;SDS011;10676;50.848;3.272;2024-03-23T10:27:16;6.97;;;6.38;;
21034;SDS011;10676;50.848;3.272;2024-03-23T10:29:47;7.72;;;6.90;;
21034;SDS011;10676;50.848;3.272;2024-03-23T10:32:14;11.68;;;6.65;;
21034;SDS011;10676;50.848;3.272;2024-03-23T10:34:41;9.57;;;7.40;;
21034;SDS011;10676;50.848;3.272;2024-03-23T10:37:07;8.55;;;7.47;;
21034;SDS011;10676;50.848;3.272;2024-03-23T10:39:37;7.78;;;7.10;;
21034;SDS011;10676;50.848;3.272;2024-03-23T10:42:04;8.00;;;7.30;;
21034;SDS011;10676;50.848;3.272;2024-03-23T10:44:32;8.05;;;7.50;;
21034;SDS011;10676;50.848;3.272;2024-03-23T10:46:59;8.07;;;7.38;;
21034;SDS011;10676;50.848;3.272;2024-03-23T10:49:29;8.48;;;7.97;;
21034;SDS011;10676;50.848;3.272;2024-03-23T10:51:57;9.05;;;8.15;;
21034;SDS011;10676;50.848;3.272;2024-03-23T10:54:30;9.10;;;8.30;;
21034;SDS011;10676;50.848;3.272;2024-03-23T10:57:05;10.52;;;8.70;;
21034;SDS011;10676;50.848;3.272;2024-03-23T10:59:34;9.23;;;8.38;;
21034;SDS011;10676;50.848;3.272;2024-03-23T11:02:02;11.52;;;7.75;;
21034;SDS011;10676;50.848;3.272;2024-03-23T11:04:35;9.63;;;7.53;;
21034;SDS011;10676;50.848;3.272;2024-03-23T11:07:05;8.77;;;7.95;;
21034;SDS011;10676;50.848;3.272;2024-03-23T11:09:49;11.23;;;7.63;;
21034;SDS011;10676;50.848;3.272;2024-03-23T11:14:48;7.95;;;7.28;;
21034;SDS011;10676;50.848;3.272;2024-03-23T11:17:19;8.20;;;7.50;;
21034;SDS011;10676;50.848;3.272;2024-03-23T11:19:52;10.10;;;7.40;;
21034;SDS011;10676;50.848;3.272;2024-03-23T11:27:46;8.25;;;7.60;;
21034;SDS011;10676;50.848;3.272;2024-03-23T11:30:13;9.07;;;7.85;;
21034;SDS011;10676;50.848;3.272;2024-03-23T11:32:40;8.52;;;7.72;;
21034;SDS011;10676;50.848;3.272;2024-03-23T11:35:07;7.93;;;7.28;;
21034;SDS011;10676;50.848;3.272;2024-03-23T11:37:35;9.23;;;7.65;;
21034;SDS011;10676;50.848;3.272;2024-03-23T11:40:16;8.93;;;8.02;;
21034;SDS011;10676;50.848;3.272;2024-03-23T11:42:44;8.98;;;7.97;;
21034;SDS011;10676;50.848;3.272;2024-03-23T11:45:10;12.18;;;7.50;;
21034;SDS011;10676;50.848;3.272;2024-03-23T11:47:37;9.80;;;7.70;;
21034;SDS011;10676;50.848;3.272;2024-03-23T11:50:02;9.07;;;8.18;;
21034;SDS011;10676;50.848;3.272;2024-03-23T11:52:28;8.98;;;8.13;;
21034;SDS011;10676;50.848;3.272;2024-03-23T11:55:04;8.98;;;8.13;;
21034;SDS011;10676;50.848;3.272;2024-03-23T11:57:32;10.63;;;8.55;;
21034;SDS011;10676;50.848;3.272;2024-03-23T11:59:58;9.63;;;8.88;;
21034;SDS011;10676;50.848;3.272;2024-03-23T12:02:24;9.77;;;8.90;;
21034;SDS011;10676;50.848;3.272;2024-03-23T12:04:50;10.20;;;9.20;;
21034;SDS011;10676;50.848;3.272;2024-03-23T12:07:16;9.98;;;9.07;;
21034;SDS011;10676;50.848;3.272;2024-03-23T12:09:47;10.10;;;9.30;;
21034;SDS011;10676;50.848;3.272;2024-03-23T12:12:28;10.50;;;9.40;;
21034;SDS011;10676;50.848;3.272;2024-03-23T12:15:05;10.70;;;9.80;;
21034;SDS011;10676;50.848;3.272;2024-03-23T12:17:33;11.35;;;10.32;;
21034;SDS011;10676;50.848;3.272;2024-03-23T12:19:59;11.13;;;9.75;;
21034;SDS011;10676;50.848;3.272;2024-03-23T12:22:26;9.98;;;9.13;;
21034;SDS011;10676;50.848;3.272;2024-03-23T12:24:52;9.65;;;8.90;;
21034;SDS011;10676;50.848;3.272;2024-03-23T12:27:18;11.60;;;10.40;;
21034;SDS011;10676;50.848;3.272;2024-03-23T12:29:43;13.48;;;12.30;;
21034;SDS011;10676;50.848;3.272;2024-03-23T12:32:11;12.75;;;11.48;;
21034;SDS011;10676;50.848;3.272;2024-03-23T12:34:37;11.68;;;10.57;;
21034;SDS011;10676;50.848;3.272;2024-03-23T12:37:03;8.70;;;8.05;;
21034;SDS011;10676;50.848;3.272;2024-03-23T12:39:31;8.85;;;8.00;;
21034;SDS011;10676;50.848;3.272;2024-03-23T12:41:56;12.85;;;8.60;;
21034;SDS011;10676;50.848;3.272;2024-03-23T12:44:22;10.95;;;8.60;;
21034;SDS011;10676;50.848;3.272;2024-03-23T12:46:48;13.32;;;9.05;;
21034;SDS011;10676;50.848;3.272;2024-03-23T12:49:14;12.00;;;10.73;;
21034;SDS011;10676;50.848;3.272;2024-03-23T12:51:46;14.27;;;10.00;;
21034;SDS011;10676;50.848;3.272;2024-03-23T12:54:23;13.68;;;8.98;;
21034;SDS011;10676;50.848;3.272;2024-03-23T12:56:49;8.27;;;7.70;;
21034;SDS011;10676;50.848;3.272;2024-03-23T12:59:15;9.20;;;8.32;;
21034;SDS011;10676;50.848;3.272;2024-03-23T13:01:44;9.32;;;8.27;;
21034;SDS011;10676;50.848;3.272;2024-03-23T13:04:10;11.00;;;8.13;;
21034;SDS011;10676;50.848;3.272;2024-03-23T13:06:36;9.05;;;8.30;;
21034;SDS011;10676;50.848;3.272;2024-03-23T13:09:02;9.27;;;8.40;;
21034;SDS011;10676;50.848;3.272;2024-03-23T13:11:28;8.90;;;8.10;;
21034;SDS011;10676;50.848;3.272;2024-03-23T13:13:54;9.10;;;8.38;;
21034;SDS011;10676;50.848;3.272;2024-03-23T13:16:20;9.77;;;8.85;;
21034;SDS011;10676;50.848;3.272;2024-03-23T13:18:46;9.73;;;8.95;;
21034;SDS011;10676;50.848;3.272;2024-03-23T13:21:11;13.27;;;12.18;;
21034;SDS011;10676;50.848;3.272;2024-03-23T13:23:37;15.18;;;13.63;;
21034;SDS011;10676;50.848;3.272;2024-03-23T13:26:15;17.02;;;15.25;;
21034;SDS011;10676;50.848;3.272;2024-03-23T13:28:49;15.40;;;13.88;;
21034;SDS011;10676;50.848;3.272;2024-03-23T13:31:15;12.25;;;11.30;;
21034;SDS011;10676;50.848;3.272;2024-03-23T13:33:41;11.32;;;10.43;;
21034;SDS011;10676;50.848;3.272;2024-03-23T13:36:09;10.32;;;9.43;;
21034;SDS011;10676;50.848;3.272;2024-03-23T13:38:34;9.68;;;8.80;;
21034;SDS011;10676;50.848;3.272;2024-03-23T13:41:01;10.07;;;9.13;;
21034;SDS011;10676;50.848;3.272;2024-03-23T13:43:29;8.73;;;7.93;;
21034;SDS011;10676;50.848;3.272;2024-03-23T13:45:55;9.13;;;8.00;;
21034;SDS011;10676;50.848;3.272;2024-03-23T13:48:23;9.65;;;8.82;;
21034;SDS011;10676;50.848;3.272;2024-03-23T13:50:59;10.88;;;8.27;;
21034;SDS011;10676;50.848;3.272;2024-03-23T13:53:28;9.75;;;7.90;;
21034;SDS011;10676;50.848;3.272;2024-03-23T13:55:54;8.70;;;8.00;;
21034;SDS011;10676;50.848;3.272;2024-03-23T13:58:20;8.88;;;8.23;;
21034;SDS011;10676;50.848;3.272;2024-03-23T14:00:46;9.50;;;8.60;;
21034;SDS011;10676;50.848;3.272;2024-03-23T14:03:13;9.27;;;8.35;;
21034;SDS011;10676;50.848;3.272;2024-03-23T14:05:40;8.85;;;8.20;;
21034;SDS011;10676;50.848;3.272;2024-03-23T14:08:06;9.82;;;8.23;;
21034;SDS011;10676;50.848;3.272;2024-03-23T14:10:33;9.02;;;8.13;;
21034;SDS011;10676;50.848;3.272;2024-03-23T14:12:58;9.20;;;7.93;;
21034;SDS011;10676;50.848;3.272;2024-03-23T14:15:27;9.77;;;8.00;;
21034;SDS011;10676;50.848;3.272;2024-03-23T14:17:53;13.35;;;8.75;;
21034;SDS011;10676;50.848;3.272;2024-03-23T14:20:20;9.60;;;8.82;;
21034;SDS011;10676;50.848;3.272;2024-03-23T14:22:46;9.88;;;8.52;;
21034;SDS011;10676;50.848;3.272;2024-03-23T14:25:12;9.98;;;9.23;;
21034;SDS011;10676;50.848;3.272;2024-03-23T14:27:38;9.60;;;8.90;;
21034;SDS011;10676;50.848;3.272;2024-03-23T14:30:04;9.07;;;8.48;;
21034;SDS011;10676;50.848;3.272;2024-03-23T14:32:30;8.80;;;8.30;;
21034;SDS011;10676;50.848;3.272;2024-03-23T14:35:02;9.05;;;8.18;;
21034;SDS011;10676;50.848;3.272;2024-03-23T14:37:32;9.45;;;8.65;;
21034;SDS011;10676;50.848;3.272;2024-03-23T14:39:57;8.63;;;8.00;;
21034;SDS011;10676;50.848;3.272;2024-03-23T14:42:24;11.27;;;8.32;;
21034;SDS011;10676;50.848;3.272;2024-03-23T14:44:50;9.40;;;8.50;;
21034;SDS011;10676;50.848;3.272;2024-03-23T14:47:17;8.65;;;8.05;;
21034;SDS011;10676;50.848;3.272;2024-03-23T14:49:44;8.98;;;8.10;;
21034;SDS011;10676;50.848;3.272;2024-03-23T14:52:16;8.55;;;7.85;;
21034;SDS011;10676;50.848;3.272;2024-03-23T14:54:42;8.90;;;8.18;;
21034;SDS011;10676;50.848;3.272;2024-03-23T14:57:08;8.70;;;8.00;;
21034;SDS011;10676;50.848;3.272;2024-03-23T14:59:35;9.45;;;8.63;;
21034;SDS011;10676;50.848;3.272;2024-03-23T15:02:03;8.60;;;7.85;;
21034;SDS011;10676;50.848;3.272;2024-03-23T15:04:29;8.70;;;7.72;;
21034;SDS011;10676;50.848;3.272;2024-03-23T15:06:55;8.27;;;7.85;;
21034;SDS011;10676;50.848;3.272;2024-03-23T15:09:20;8.82;;;8.10;;
21034;SDS011;10676;50.848;3.272;2024-03-23T15:11:46;8.63;;;8.13;;
21034;SDS011;10676;50.848;3.272;2024-03-23T15:14:12;8.80;;;8.10;;
21034;SDS011;10676;50.848;3.272;2024-03-23T15:16:37;9.05;;;8.30;;
21034;SDS011;10676;50.848;3.272;2024-03-23T15:19:03;8.68;;;7.90;;
21034;SDS011;10676;50.848;3.272;2024-03-23T15:21:31;8.85;;;8.05;;
21034;SDS011;10676;50.848;3.272;2024-03-23T15:23:57;9.90;;;8.52;;
21034;SDS011;10676;50.848;3.272;2024-03-23T15:26:22;9.02;;;8.32;;
21034;SDS011;10676;50.848;3.272;2024-03-23T15:28:48;9.02;;;8.43;;
21034;SDS011;10676;50.848;3.272;2024-03-23T15:31:23;9.52;;;8.60;;
21034;SDS011;10676;50.848;3.272;2024-03-23T15:33:49;9.00;;;8.15;;
21034;SDS011;10676;50.848;3.272;2024-03-23T15:36:15;9.85;;;9.00;;
21034;SDS011;10676;50.848;3.272;2024-03-23T15:38:41;8.68;;;8.07;;
21034;SDS011;10676;50.848;3.272;2024-03-23T15:41:07;9.05;;;8.25;;
21034;SDS011;10676;50.848;3.272;2024-03-23T15:43:34;12.50;;;8.73;;